This is the latest recevied weather packets stored in our database for station/object SP4LIN-15. If no packets are shown the sender has not sent any weather packets the latest 1 day(s).
| Time | Temp. | Humidity | Pressure | Rain* | Wind** | Luminosity | Snow |
|---|---|---|---|---|---|---|---|
| 1778013543 | 9.44° C | 89% | 1002 hPa | 0.51 mm | 0 m/s | - | - |
| 1778012643 | 9.44° C | 89% | 1001.8 hPa | 0.51 mm | 0 m/s | - | - |
| 1778011743 | 8.89° C | 88% | 1002 hPa | 0.51 mm | 1.79 m/s, 45° | - | - |
| 1778010843 | 8.89° C | 88% | 1001.8 hPa | 0.51 mm | 0 m/s | - | - |
| 1778009943 | 8.89° C | 88% | 1001.7 hPa | 0 mm | 0.45 m/s, 45° | - | - |
| 1778009043 | 8.89° C | 88% | 1001.6 hPa | 0 mm | 0 m/s | - | - |
| 1778008143 | 8.89° C | 88% | 1001.8 hPa | 0 mm | 0 m/s | - | - |
| 1778007243 | 8.89° C | 88% | 1001.8 hPa | 0 mm | 0 m/s | - | - |
| 1778006343 | 8.89° C | 88% | 1001.3 hPa | 0 mm | 0.45 m/s, 45° | - | - |
| 1778005443 | 8.89° C | 88% | 1001.6 hPa | 0 mm | 0 m/s | - | - |
| 1778004543 | 8.89° C | 88% | 1001.2 hPa | 0 mm | 0.45 m/s, 45° | - | - |
| 1778003643 | 8.89° C | 87% | 1001.4 hPa | 0 mm | 0.89 m/s, 45° | - | - |
| 1778002743 | 8.89° C | 87% | 1001.7 hPa | 0 mm | 0.45 m/s, 45° | - | - |
| 1778001843 | 9.44° C | 87% | 1001.6 hPa | 0.51 mm | 0.45 m/s, 45° | - | - |
| 1778000943 | 8.89° C | 86% | 1001.5 hPa | 0.51 mm | 0.89 m/s, 45° | - | - |
| 1778000043 | 8.89° C | 86% | 1001.8 hPa | 0.51 mm | 2.24 m/s, 45° | - | - |
| 1777999143 | 8.89° C | 85% | 1001.8 hPa | 0.51 mm | 0.89 m/s, 22° | - | - |
| 1777998243 | 8.89° C | 84% | 1001.9 hPa | 0.51 mm | 1.79 m/s, 22° | - | - |
| 1777997343 | 8.89° C | 82% | 1001.9 hPa | 0.51 mm | 2.68 m/s, 22° | - | - |
| 1777996443 | 8.89° C | 79% | 1002 hPa | 0.51 mm | 1.34 m/s, 22° | - | - |
| 1777995543 | 9.44° C | 76% | 1002.1 hPa | 0.51 mm | 1.79 m/s, 22° | - | - |
| 1777994643 | 10.56° C | 72% | 1002.2 hPa | 0 mm | 2.68 m/s, 0° | - | - |
| 1777993743 | 12.22° C | 65% | 1002.2 hPa | 0 mm | 3.58 m/s, 0° | - | - |
| 1777992844 | 13.33° C | 61% | 1002 hPa | 0 mm | 3.13 m/s, 0° | - | - |
| 1777991944 | 14.44° C | 58% | 1001.9 hPa | 0 mm | 0.45 m/s, 315° | - | - |
* Rain latest hour (hover to see other rain measurements)
** Current wind speed in m/s (hover to see current wind gust speed)